sensor_id;sensor_type;location;lat;lon;timestamp;P1;durP1;ratioP1;P2;durP2;ratioP2
19758;SDS011;10038;42.662;23.278;2023-04-24T00:01:59;16.33;;;11.50;;
19758;SDS011;10038;42.662;23.278;2023-04-24T00:04:26;16.20;;;12.80;;
19758;SDS011;10038;42.662;23.278;2023-04-24T00:06:54;13.60;;;10.90;;
19758;SDS011;10038;42.662;23.278;2023-04-24T00:09:22;14.00;;;10.50;;
19758;SDS011;10038;42.662;23.278;2023-04-24T00:11:49;12.70;;;10.67;;
19758;SDS011;10038;42.662;23.278;2023-04-24T00:14:16;13.83;;;10.90;;
19758;SDS011;10038;42.662;23.278;2023-04-24T00:16:43;15.10;;;11.57;;
19758;SDS011;10038;42.662;23.278;2023-04-24T00:19:09;13.10;;;11.27;;
19758;SDS011;10038;42.662;23.278;2023-04-24T00:21:37;11.23;;;10.00;;
19758;SDS011;10038;42.662;23.278;2023-04-24T00:24:06;13.73;;;10.20;;
19758;SDS011;10038;42.662;23.278;2023-04-24T00:26:34;13.80;;;11.40;;
19758;SDS011;10038;42.662;23.278;2023-04-24T00:29:00;15.07;;;10.90;;
19758;SDS011;10038;42.662;23.278;2023-04-24T00:31:27;15.83;;;10.83;;
19758;SDS011;10038;42.662;23.278;2023-04-24T00:33:54;14.73;;;10.50;;
19758;SDS011;10038;42.662;23.278;2023-04-24T00:36:21;11.33;;;10.10;;
19758;SDS011;10038;42.662;23.278;2023-04-24T00:38:48;13.50;;;11.10;;
19758;SDS011;10038;42.662;23.278;2023-04-24T00:41:16;14.70;;;10.67;;
19758;SDS011;10038;42.662;23.278;2023-04-24T00:43:43;17.43;;;11.00;;
19758;SDS011;10038;42.662;23.278;2023-04-24T00:46:10;14.03;;;11.07;;
19758;SDS011;10038;42.662;23.278;2023-04-24T00:48:38;16.73;;;11.17;;
19758;SDS011;10038;42.662;23.278;2023-04-24T00:51:05;15.60;;;10.10;;
19758;SDS011;10038;42.662;23.278;2023-04-24T00:53:32;15.67;;;11.47;;
19758;SDS011;10038;42.662;23.278;2023-04-24T00:55:59;16.30;;;11.17;;
19758;SDS011;10038;42.662;23.278;2023-04-24T00:58:29;12.80;;;10.20;;
19758;SDS011;10038;42.662;23.278;2023-04-24T01:00:56;11.90;;;9.93;;
19758;SDS011;10038;42.662;23.278;2023-04-24T01:03:26;14.73;;;10.80;;
19758;SDS011;10038;42.662;23.278;2023-04-24T01:05:56;17.13;;;10.57;;
19758;SDS011;10038;42.662;23.278;2023-04-24T01:08:24;14.53;;;11.17;;
19758;SDS011;10038;42.662;23.278;2023-04-24T01:10:52;15.40;;;11.00;;
19758;SDS011;10038;42.662;23.278;2023-04-24T01:13:19;17.10;;;12.20;;
19758;SDS011;10038;42.662;23.278;2023-04-24T01:15:48;14.40;;;11.30;;
19758;SDS011;10038;42.662;23.278;2023-04-24T01:18:15;11.97;;;10.70;;
19758;SDS011;10038;42.662;23.278;2023-04-24T01:20:42;15.20;;;11.30;;
19758;SDS011;10038;42.662;23.278;2023-04-24T01:23:13;15.70;;;11.10;;
19758;SDS011;10038;42.662;23.278;2023-04-24T01:25:40;18.30;;;13.03;;
19758;SDS011;10038;42.662;23.278;2023-04-24T01:28:07;32.93;;;11.30;;
19758;SDS011;10038;42.662;23.278;2023-04-24T01:30:35;17.27;;;12.43;;
19758;SDS011;10038;42.662;23.278;2023-04-24T01:33:01;17.27;;;13.00;;
19758;SDS011;10038;42.662;23.278;2023-04-24T01:35:29;15.63;;;12.20;;
19758;SDS011;10038;42.662;23.278;2023-04-24T01:37:56;17.80;;;11.87;;
19758;SDS011;10038;42.662;23.278;2023-04-24T01:40:24;18.20;;;13.53;;
19758;SDS011;10038;42.662;23.278;2023-04-24T01:42:51;14.40;;;10.87;;
19758;SDS011;10038;42.662;23.278;2023-04-24T01:45:18;19.23;;;12.77;;
19758;SDS011;10038;42.662;23.278;2023-04-24T01:47:45;20.53;;;13.00;;
19758;SDS011;10038;42.662;23.278;2023-04-24T01:50:14;16.57;;;13.27;;
19758;SDS011;10038;42.662;23.278;2023-04-24T01:52:41;22.67;;;15.70;;
19758;SDS011;10038;42.662;23.278;2023-04-24T01:55:08;25.93;;;17.40;;
19758;SDS011;10038;42.662;23.278;2023-04-24T01:57:37;23.57;;;14.27;;
19758;SDS011;10038;42.662;23.278;2023-04-24T02:00:04;18.80;;;12.80;;
19758;SDS011;10038;42.662;23.278;2023-04-24T02:02:33;20.43;;;13.83;;
19758;SDS011;10038;42.662;23.278;2023-04-24T02:05:00;16.77;;;12.27;;
19758;SDS011;10038;42.662;23.278;2023-04-24T02:07:27;18.17;;;13.10;;
19758;SDS011;10038;42.662;23.278;2023-04-24T02:09:54;20.47;;;13.37;;
19758;SDS011;10038;42.662;23.278;2023-04-24T02:12:21;22.83;;;12.40;;
19758;SDS011;10038;42.662;23.278;2023-04-24T02:14:49;18.53;;;12.60;;
19758;SDS011;10038;42.662;23.278;2023-04-24T02:17:16;18.00;;;12.53;;
19758;SDS011;10038;42.662;23.278;2023-04-24T02:19:44;18.13;;;13.77;;
19758;SDS011;10038;42.662;23.278;2023-04-24T02:22:11;17.03;;;13.07;;
19758;SDS011;10038;42.662;23.278;2023-04-24T02:24:38;18.30;;;13.20;;
19758;SDS011;10038;42.662;23.278;2023-04-24T02:27:05;19.03;;;13.20;;
19758;SDS011;10038;42.662;23.278;2023-04-24T02:29:31;17.77;;;12.10;;
19758;SDS011;10038;42.662;23.278;2023-04-24T02:32:00;17.27;;;12.97;;
19758;SDS011;10038;42.662;23.278;2023-04-24T02:34:27;19.70;;;13.30;;
19758;SDS011;10038;42.662;23.278;2023-04-24T02:36:53;16.77;;;13.40;;
19758;SDS011;10038;42.662;23.278;2023-04-24T02:39:20;18.13;;;12.77;;
19758;SDS011;10038;42.662;23.278;2023-04-24T02:41:47;19.47;;;12.10;;
19758;SDS011;10038;42.662;23.278;2023-04-24T02:44:14;15.70;;;12.90;;
19758;SDS011;10038;42.662;23.278;2023-04-24T02:46:42;16.63;;;12.77;;
19758;SDS011;10038;42.662;23.278;2023-04-24T02:49:10;21.90;;;12.77;;
19758;SDS011;10038;42.662;23.278;2023-04-24T02:51:37;23.77;;;13.50;;
19758;SDS011;10038;42.662;23.278;2023-04-24T02:54:06;14.97;;;12.53;;
19758;SDS011;10038;42.662;23.278;2023-04-24T02:56:33;17.43;;;12.53;;
19758;SDS011;10038;42.662;23.278;2023-04-24T02:59:00;18.57;;;14.10;;
19758;SDS011;10038;42.662;23.278;2023-04-24T03:01:27;22.23;;;14.57;;
19758;SDS011;10038;42.662;23.278;2023-04-24T03:03:53;16.77;;;12.90;;
19758;SDS011;10038;42.662;23.278;2023-04-24T03:06:22;15.27;;;12.23;;
19758;SDS011;10038;42.662;23.278;2023-04-24T03:08:49;22.53;;;13.87;;
19758;SDS011;10038;42.662;23.278;2023-04-24T03:11:15;20.53;;;13.73;;
19758;SDS011;10038;42.662;23.278;2023-04-24T03:13:42;20.07;;;12.67;;
19758;SDS011;10038;42.662;23.278;2023-04-24T03:16:09;19.93;;;13.17;;
19758;SDS011;10038;42.662;23.278;2023-04-24T03:18:36;23.30;;;12.97;;
19758;SDS011;10038;42.662;23.278;2023-04-24T03:21:03;21.20;;;12.90;;
19758;SDS011;10038;42.662;23.278;2023-04-24T03:23:31;15.97;;;12.30;;
19758;SDS011;10038;42.662;23.278;2023-04-24T03:25:58;25.73;;;13.33;;
19758;SDS011;10038;42.662;23.278;2023-04-24T03:28:25;18.23;;;13.50;;
19758;SDS011;10038;42.662;23.278;2023-04-24T03:30:52;18.03;;;12.20;;
19758;SDS011;10038;42.662;23.278;2023-04-24T03:33:19;22.80;;;13.60;;
19758;SDS011;10038;42.662;23.278;2023-04-24T03:35:45;18.20;;;13.20;;
19758;SDS011;10038;42.662;23.278;2023-04-24T03:38:12;18.93;;;12.80;;
19758;SDS011;10038;42.662;23.278;2023-04-24T03:40:40;19.00;;;11.80;;
19758;SDS011;10038;42.662;23.278;2023-04-24T03:43:07;13.87;;;11.83;;
19758;SDS011;10038;42.662;23.278;2023-04-24T03:45:34;15.60;;;11.53;;
19758;SDS011;10038;42.662;23.278;2023-04-24T03:48:01;17.87;;;12.10;;
19758;SDS011;10038;42.662;23.278;2023-04-24T03:50:28;16.90;;;11.13;;
19758;SDS011;10038;42.662;23.278;2023-04-24T03:52:55;15.27;;;10.90;;
19758;SDS011;10038;42.662;23.278;2023-04-24T03:55:22;14.10;;;11.13;;
19758;SDS011;10038;42.662;23.278;2023-04-24T03:57:50;14.93;;;11.70;;
19758;SDS011;10038;42.662;23.278;2023-04-24T04:00:17;18.17;;;11.77;;
19758;SDS011;10038;42.662;23.278;2023-04-24T04:02:44;11.27;;;9.93;;
19758;SDS011;10038;42.662;23.278;2023-04-24T04:05:11;14.93;;;11.53;;
19758;SDS011;10038;42.662;23.278;2023-04-24T04:07:38;19.57;;;11.53;;
19758;SDS011;10038;42.662;23.278;2023-04-24T04:10:05;20.80;;;12.63;;
19758;SDS011;10038;42.662;23.278;2023-04-24T04:12:33;18.07;;;12.40;;
19758;SDS011;10038;42.662;23.278;2023-04-24T04:15:01;17.83;;;11.80;;
19758;SDS011;10038;42.662;23.278;2023-04-24T04:17:28;18.63;;;11.93;;
19758;SDS011;10038;42.662;23.278;2023-04-24T04:19:55;11.90;;;10.07;;
19758;SDS011;10038;42.662;23.278;2023-04-24T04:22:22;16.37;;;10.37;;
19758;SDS011;10038;42.662;23.278;2023-04-24T04:24:49;18.87;;;12.10;;
19758;SDS011;10038;42.662;23.278;2023-04-24T04:27:16;14.47;;;10.40;;
19758;SDS011;10038;42.662;23.278;2023-04-24T04:29:43;14.50;;;10.90;;
19758;SDS011;10038;42.662;23.278;2023-04-24T04:32:12;15.43;;;11.50;;
19758;SDS011;10038;42.662;23.278;2023-04-24T04:34:39;12.37;;;9.67;;
19758;SDS011;10038;42.662;23.278;2023-04-24T04:37:05;14.63;;;11.17;;
19758;SDS011;10038;42.662;23.278;2023-04-24T04:39:32;14.33;;;10.47;;
19758;SDS011;10038;42.662;23.278;2023-04-24T04:41:59;15.37;;;10.30;;
19758;SDS011;10038;42.662;23.278;2023-04-24T04:44:26;14.87;;;9.40;;
19758;SDS011;10038;42.662;23.278;2023-04-24T04:46:53;21.17;;;11.20;;
19758;SDS011;10038;42.662;23.278;2023-04-24T04:49:22;18.20;;;10.00;;
19758;SDS011;10038;42.662;23.278;2023-04-24T04:51:49;16.10;;;11.17;;
19758;SDS011;10038;42.662;23.278;2023-04-24T04:54:17;17.70;;;10.57;;
19758;SDS011;10038;42.662;23.278;2023-04-24T04:56:47;14.60;;;12.07;;
19758;SDS011;10038;42.662;23.278;2023-04-24T04:59:16;16.70;;;11.30;;
19758;SDS011;10038;42.662;23.278;2023-04-24T05:01:43;12.67;;;9.67;;
19758;SDS011;10038;42.662;23.278;2023-04-24T05:04:09;16.00;;;10.20;;
19758;SDS011;10038;42.662;23.278;2023-04-24T05:06:38;15.17;;;11.07;;
19758;SDS011;10038;42.662;23.278;2023-04-24T05:09:04;13.90;;;10.57;;
19758;SDS011;10038;42.662;23.278;2023-04-24T05:11:32;14.43;;;9.23;;
19758;SDS011;10038;42.662;23.278;2023-04-24T05:13:59;18.70;;;10.87;;
19758;SDS011;10038;42.662;23.278;2023-04-24T05:16:26;15.20;;;9.87;;
19758;SDS011;10038;42.662;23.278;2023-04-24T05:18:53;16.03;;;11.87;;
19758;SDS011;10038;42.662;23.278;2023-04-24T05:21:20;13.90;;;10.90;;
19758;SDS011;10038;42.662;23.278;2023-04-24T05:23:48;15.73;;;11.00;;
19758;SDS011;10038;42.662;23.278;2023-04-24T05:26:15;18.43;;;10.83;;
19758;SDS011;10038;42.662;23.278;2023-04-24T05:28:42;17.13;;;10.17;;
19758;SDS011;10038;42.662;23.278;2023-04-24T05:31:09;10.70;;;8.23;;
19758;SDS011;10038;42.662;23.278;2023-04-24T05:33:37;9.40;;;6.73;;
19758;SDS011;10038;42.662;23.278;2023-04-24T05:36:04;9.30;;;7.27;;
19758;SDS011;10038;42.662;23.278;2023-04-24T05:38:32;9.27;;;6.87;;
19758;SDS011;10038;42.662;23.278;2023-04-24T05:41:01;7.20;;;6.20;;
19758;SDS011;10038;42.662;23.278;2023-04-24T05:43:27;8.63;;;7.07;;
19758;SDS011;10038;42.662;23.278;2023-04-24T05:45:54;12.87;;;6.80;;
19758;SDS011;10038;42.662;23.278;2023-04-24T05:48:21;10.90;;;6.60;;
19758;SDS011;10038;42.662;23.278;2023-04-24T05:50:48;9.90;;;7.53;;
19758;SDS011;10038;42.662;23.278;2023-04-24T05:53:15;10.07;;;7.10;;
19758;SDS011;10038;42.662;23.278;2023-04-24T05:55:42;14.90;;;7.07;;
19758;SDS011;10038;42.662;23.278;2023-04-24T05:58:11;9.80;;;7.07;;
19758;SDS011;10038;42.662;23.278;2023-04-24T06:00:39;12.80;;;7.53;;
19758;SDS011;10038;42.662;23.278;2023-04-24T06:03:07;7.67;;;6.90;;
19758;SDS011;10038;42.662;23.278;2023-04-24T06:05:34;13.70;;;7.17;;
19758;SDS011;10038;42.662;23.278;2023-04-24T06:08:01;20.73;;;8.30;;
19758;SDS011;10038;42.662;23.278;2023-04-24T06:10:28;8.27;;;6.67;;
19758;SDS011;10038;42.662;23.278;2023-04-24T06:12:55;11.40;;;7.40;;
19758;SDS011;10038;42.662;23.278;2023-04-24T06:15:27;9.80;;;8.00;;
19758;SDS011;10038;42.662;23.278;2023-04-24T06:17:55;10.20;;;8.33;;
19758;SDS011;10038;42.662;23.278;2023-04-24T06:20:22;15.03;;;8.83;;
19758;SDS011;10038;42.662;23.278;2023-04-24T06:22:49;12.13;;;8.10;;
19758;SDS011;10038;42.662;23.278;2023-04-24T06:25:16;11.20;;;8.27;;
19758;SDS011;10038;42.662;23.278;2023-04-24T06:27:44;13.63;;;8.63;;
19758;SDS011;10038;42.662;23.278;2023-04-24T06:30:11;13.70;;;9.23;;
19758;SDS011;10038;42.662;23.278;2023-04-24T06:32:40;8.77;;;7.93;;
19758;SDS011;10038;42.662;23.278;2023-04-24T06:35:07;19.67;;;8.70;;
19758;SDS011;10038;42.662;23.278;2023-04-24T06:37:35;10.20;;;9.07;;
19758;SDS011;10038;42.662;23.278;2023-04-24T06:40:02;15.50;;;8.30;;
19758;SDS011;10038;42.662;23.278;2023-04-24T06:42:29;11.97;;;9.03;;
19758;SDS011;10038;42.662;23.278;2023-04-24T06:44:55;11.60;;;9.23;;
19758;SDS011;10038;42.662;23.278;2023-04-24T06:47:22;13.37;;;9.20;;
19758;SDS011;10038;42.662;23.278;2023-04-24T06:49:50;10.80;;;9.37;;
19758;SDS011;10038;42.662;23.278;2023-04-24T06:52:17;11.83;;;8.73;;
19758;SDS011;10038;42.662;23.278;2023-04-24T06:54:44;11.50;;;9.37;;
19758;SDS011;10038;42.662;23.278;2023-04-24T06:57:11;13.93;;;9.40;;
19758;SDS011;10038;42.662;23.278;2023-04-24T06:59:38;12.03;;;9.43;;
19758;SDS011;10038;42.662;23.278;2023-04-24T07:02:05;10.40;;;9.33;;
19758;SDS011;10038;42.662;23.278;2023-04-24T07:04:32;15.90;;;10.90;;
19758;SDS011;10038;42.662;23.278;2023-04-24T07:07:00;10.97;;;8.77;;
19758;SDS011;10038;42.662;23.278;2023-04-24T07:09:27;13.50;;;8.30;;
19758;SDS011;10038;42.662;23.278;2023-04-24T07:11:54;11.00;;;8.60;;
19758;SDS011;10038;42.662;23.278;2023-04-24T07:14:22;10.83;;;9.10;;
19758;SDS011;10038;42.662;23.278;2023-04-24T07:16:49;9.97;;;8.97;;
19758;SDS011;10038;42.662;23.278;2023-04-24T07:19:16;11.20;;;8.73;;
19758;SDS011;10038;42.662;23.278;2023-04-24T07:21:42;10.80;;;8.00;;
19758;SDS011;10038;42.662;23.278;2023-04-24T07:24:11;10.50;;;8.60;;
19758;SDS011;10038;42.662;23.278;2023-04-24T07:26:38;7.93;;;7.10;;
19758;SDS011;10038;42.662;23.278;2023-04-24T07:29:05;9.27;;;6.53;;
19758;SDS011;10038;42.662;23.278;2023-04-24T07:31:32;6.93;;;6.23;;
19758;SDS011;10038;42.662;23.278;2023-04-24T07:33:59;13.50;;;7.33;;
19758;SDS011;10038;42.662;23.278;2023-04-24T07:36:26;7.17;;;6.50;;
19758;SDS011;10038;42.662;23.278;2023-04-24T07:38:53;8.33;;;6.83;;
19758;SDS011;10038;42.662;23.278;2023-04-24T07:41:23;7.97;;;7.13;;
19758;SDS011;10038;42.662;23.278;2023-04-24T07:43:50;5.70;;;5.20;;
19758;SDS011;10038;42.662;23.278;2023-04-24T07:46:17;8.20;;;5.40;;
19758;SDS011;10038;42.662;23.278;2023-04-24T07:48:44;6.90;;;5.50;;
19758;SDS011;10038;42.662;23.278;2023-04-24T07:51:13;7.10;;;5.53;;
19758;SDS011;10038;42.662;23.278;2023-04-24T07:53:39;6.03;;;5.47;;
19758;SDS011;10038;42.662;23.278;2023-04-24T07:56:06;7.83;;;7.03;;
19758;SDS011;10038;42.662;23.278;2023-04-24T07:58:35;8.90;;;8.10;;
19758;SDS011;10038;42.662;23.278;2023-04-24T08:01:02;15.03;;;7.57;;
19758;SDS011;10038;42.662;23.278;2023-04-24T08:03:28;79.10;;;16.43;;
19758;SDS011;10038;42.662;23.278;2023-04-24T08:05:55;10.00;;;7.20;;
19758;SDS011;10038;42.662;23.278;2023-04-24T08:08:22;8.40;;;7.20;;
19758;SDS011;10038;42.662;23.278;2023-04-24T08:10:49;7.70;;;7.00;;
19758;SDS011;10038;42.662;23.278;2023-04-24T08:13:16;9.03;;;7.10;;
19758;SDS011;10038;42.662;23.278;2023-04-24T08:15:44;10.00;;;7.53;;
19758;SDS011;10038;42.662;23.278;2023-04-24T08:18:11;8.20;;;6.70;;
19758;SDS011;10038;42.662;23.278;2023-04-24T08:20:38;10.20;;;7.43;;
19758;SDS011;10038;42.662;23.278;2023-04-24T08:23:05;9.50;;;7.10;;
19758;SDS011;10038;42.662;23.278;2023-04-24T08:25:32;7.63;;;6.93;;
19758;SDS011;10038;42.662;23.278;2023-04-24T08:28:00;10.93;;;7.40;;
19758;SDS011;10038;42.662;23.278;2023-04-24T08:30:29;8.87;;;7.30;;
19758;SDS011;10038;42.662;23.278;2023-04-24T08:32:57;7.10;;;6.50;;
19758;SDS011;10038;42.662;23.278;2023-04-24T08:35:24;7.87;;;7.17;;
19758;SDS011;10038;42.662;23.278;2023-04-24T08:37:51;7.70;;;6.97;;
19758;SDS011;10038;42.662;23.278;2023-04-24T08:40:18;7.03;;;6.33;;
19758;SDS011;10038;42.662;23.278;2023-04-24T08:42:54;8.50;;;7.53;;
19758;SDS011;10038;42.662;23.278;2023-04-24T08:45:22;7.67;;;6.87;;
19758;SDS011;10038;42.662;23.278;2023-04-24T08:47:49;7.60;;;6.80;;
19758;SDS011;10038;42.662;23.278;2023-04-24T08:50:19;7.70;;;6.83;;
19758;SDS011;10038;42.662;23.278;2023-04-24T08:52:47;7.53;;;6.67;;
19758;SDS011;10038;42.662;23.278;2023-04-24T08:55:15;10.37;;;8.03;;
19758;SDS011;10038;42.662;23.278;2023-04-24T08:57:43;11.23;;;7.13;;
19758;SDS011;10038;42.662;23.278;2023-04-24T09:00:13;9.33;;;6.60;;
19758;SDS011;10038;42.662;23.278;2023-04-24T09:02:41;8.97;;;6.50;;
19758;SDS011;10038;42.662;23.278;2023-04-24T09:05:10;8.43;;;7.00;;
19758;SDS011;10038;42.662;23.278;2023-04-24T09:07:38;11.00;;;7.60;;
19758;SDS011;10038;42.662;23.278;2023-04-24T09:10:08;9.07;;;7.20;;
19758;SDS011;10038;42.662;23.278;2023-04-24T09:12:35;9.03;;;7.30;;
19758;SDS011;10038;42.662;23.278;2023-04-24T09:15:02;9.30;;;7.73;;
19758;SDS011;10038;42.662;23.278;2023-04-24T09:17:30;11.13;;;6.60;;
19758;SDS011;10038;42.662;23.278;2023-04-24T09:19:57;7.87;;;6.33;;
19758;SDS011;10038;42.662;23.278;2023-04-24T09:22:23;8.03;;;7.27;;
19758;SDS011;10038;42.662;23.278;2023-04-24T09:25:00;8.30;;;6.40;;
19758;SDS011;10038;42.662;23.278;2023-04-24T09:27:29;10.63;;;6.70;;
19758;SDS011;10038;42.662;23.278;2023-04-24T09:29:56;7.70;;;6.50;;
19758;SDS011;10038;42.662;23.278;2023-04-24T09:32:24;10.03;;;6.50;;
19758;SDS011;10038;42.662;23.278;2023-04-24T09:35:04;8.80;;;6.90;;
19758;SDS011;10038;42.662;23.278;2023-04-24T09:37:34;7.50;;;6.80;;
19758;SDS011;10038;42.662;23.278;2023-04-24T09:40:10;6.23;;;5.67;;
19758;SDS011;10038;42.662;23.278;2023-04-24T09:42:45;9.77;;;6.80;;
19758;SDS011;10038;42.662;23.278;2023-04-24T09:45:17;8.97;;;6.70;;
19758;SDS011;10038;42.662;23.278;2023-04-24T09:47:44;7.30;;;6.60;;
19758;SDS011;10038;42.662;23.278;2023-04-24T09:50:12;7.63;;;5.80;;
19758;SDS011;10038;42.662;23.278;2023-04-24T09:52:41;8.00;;;7.00;;
19758;SDS011;10038;42.662;23.278;2023-04-24T09:55:15;6.77;;;6.17;;
19758;SDS011;10038;42.662;23.278;2023-04-24T09:57:50;8.33;;;6.87;;
19758;SDS011;10038;42.662;23.278;2023-04-24T10:00:22;7.17;;;6.00;;
19758;SDS011;10038;42.662;23.278;2023-04-24T10:02:50;10.07;;;6.80;;
19758;SDS011;10038;42.662;23.278;2023-04-24T10:05:22;7.30;;;6.60;;
19758;SDS011;10038;42.662;23.278;2023-04-24T10:07:50;5.80;;;5.30;;
19758;SDS011;10038;42.662;23.278;2023-04-24T10:10:18;9.43;;;5.77;;
19758;SDS011;10038;42.662;23.278;2023-04-24T10:12:45;8.00;;;5.17;;
19758;SDS011;10038;42.662;23.278;2023-04-24T10:15:13;5.77;;;5.27;;
19758;SDS011;10038;42.662;23.278;2023-04-24T10:17:42;10.00;;;5.67;;
19758;SDS011;10038;42.662;23.278;2023-04-24T10:20:17;7.83;;;5.37;;
19758;SDS011;10038;42.662;23.278;2023-04-24T10:22:45;10.07;;;5.30;;
19758;SDS011;10038;42.662;23.278;2023-04-24T10:25:16;9.70;;;4.50;;
19758;SDS011;10038;42.662;23.278;2023-04-24T10:27:46;6.80;;;4.80;;
19758;SDS011;10038;42.662;23.278;2023-04-24T10:30:13;5.43;;;4.93;;
19758;SDS011;10038;42.662;23.278;2023-04-24T10:32:41;6.27;;;4.30;;
19758;SDS011;10038;42.662;23.278;2023-04-24T10:35:08;4.33;;;3.90;;
19758;SDS011;10038;42.662;23.278;2023-04-24T10:37:36;4.20;;;3.80;;
19758;SDS011;10038;42.662;23.278;2023-04-24T10:40:07;4.20;;;3.80;;
19758;SDS011;10038;42.662;23.278;2023-04-24T10:42:35;9.30;;;4.10;;
19758;SDS011;10038;42.662;23.278;2023-04-24T10:45:08;4.67;;;3.50;;
19758;SDS011;10038;42.662;23.278;2023-04-24T10:47:42;4.20;;;3.90;;
19758;SDS011;10038;42.662;23.278;2023-04-24T10:50:16;3.43;;;3.13;;
19758;SDS011;10038;42.662;23.278;2023-04-24T10:52:44;6.60;;;4.60;;
19758;SDS011;10038;42.662;23.278;2023-04-24T10:55:12;5.00;;;4.50;;
19758;SDS011;10038;42.662;23.278;2023-04-24T10:57:39;5.87;;;3.77;;
19758;SDS011;10038;42.662;23.278;2023-04-24T11:00:27;5.63;;;5.03;;
19758;SDS011;10038;42.662;23.278;2023-04-24T11:02:54;6.73;;;5.10;;
19758;SDS011;10038;42.662;23.278;2023-04-24T11:05:22;6.67;;;5.00;;
19758;SDS011;10038;42.662;23.278;2023-04-24T11:08:12;5.90;;;4.30;;
19758;SDS011;10038;42.662;23.278;2023-04-24T11:10:43;6.07;;;4.00;;
19758;SDS011;10038;42.662;23.278;2023-04-24T11:13:13;4.40;;;4.00;;
19758;SDS011;10038;42.662;23.278;2023-04-24T11:15:42;6.43;;;4.17;;
19758;SDS011;10038;42.662;23.278;2023-04-24T11:18:12;6.83;;;5.13;;
19758;SDS011;10038;42.662;23.278;2023-04-24T11:20:41;5.33;;;4.43;;
19758;SDS011;10038;42.662;23.278;2023-04-24T11:23:13;5.83;;;4.83;;
19758;SDS011;10038;42.662;23.278;2023-04-24T11:28:36;3.20;;;2.70;;
19758;SDS011;10038;42.662;23.278;2023-04-24T11:34:11;4.43;;;4.03;;
19758;SDS011;10038;42.662;23.278;2023-04-24T11:36:43;4.90;;;4.10;;
19758;SDS011;10038;42.662;23.278;2023-04-24T11:39:10;6.27;;;4.67;;
19758;SDS011;10038;42.662;23.278;2023-04-24T11:41:38;70.93;;;10.00;;
19758;SDS011;10038;42.662;23.278;2023-04-24T11:44:06;5.73;;;5.13;;
19758;SDS011;10038;42.662;23.278;2023-04-24T11:46:35;6.97;;;5.27;;
19758;SDS011;10038;42.662;23.278;2023-04-24T11:49:03;8.50;;;5.50;;
19758;SDS011;10038;42.662;23.278;2023-04-24T11:51:32;4.70;;;4.30;;
19758;SDS011;10038;42.662;23.278;2023-04-24T11:54:00;12.20;;;6.30;;
19758;SDS011;10038;42.662;23.278;2023-04-24T11:56:27;6.70;;;5.20;;
19758;SDS011;10038;42.662;23.278;2023-04-24T11:58:54;4.90;;;4.50;;
19758;SDS011;10038;42.662;23.278;2023-04-24T12:01:20;9.03;;;5.53;;
19758;SDS011;10038;42.662;23.278;2023-04-24T12:03:48;4.90;;;4.50;;
19758;SDS011;10038;42.662;23.278;2023-04-24T12:06:16;5.60;;;5.10;;
19758;SDS011;10038;42.662;23.278;2023-04-24T12:08:46;5.30;;;4.30;;
19758;SDS011;10038;42.662;23.278;2023-04-24T12:11:14;4.83;;;4.37;;
19758;SDS011;10038;42.662;23.278;2023-04-24T12:13:45;4.33;;;3.40;;
19758;SDS011;10038;42.662;23.278;2023-04-24T12:16:13;5.57;;;3.93;;
19758;SDS011;10038;42.662;23.278;2023-04-24T12:18:41;8.60;;;5.60;;
19758;SDS011;10038;42.662;23.278;2023-04-24T12:21:16;10.17;;;4.50;;
19758;SDS011;10038;42.662;23.278;2023-04-24T12:23:48;4.10;;;3.47;;
19758;SDS011;10038;42.662;23.278;2023-04-24T12:26:16;4.10;;;3.80;;
19758;SDS011;10038;42.662;23.278;2023-04-24T12:28:46;4.60;;;4.30;;
19758;SDS011;10038;42.662;23.278;2023-04-24T12:31:14;4.47;;;4.17;;
19758;SDS011;10038;42.662;23.278;2023-04-24T12:33:41;7.10;;;4.13;;
19758;SDS011;10038;42.662;23.278;2023-04-24T12:36:09;4.10;;;3.70;;
19758;SDS011;10038;42.662;23.278;2023-04-24T12:38:38;4.00;;;3.70;;
19758;SDS011;10038;42.662;23.278;2023-04-24T12:41:08;4.20;;;3.90;;
19758;SDS011;10038;42.662;23.278;2023-04-24T12:43:35;5.13;;;4.47;;
19758;SDS011;10038;42.662;23.278;2023-04-24T12:46:02;6.00;;;4.97;;
19758;SDS011;10038;42.662;23.278;2023-04-24T12:48:30;4.87;;;4.37;;
19758;SDS011;10038;42.662;23.278;2023-04-24T12:50:57;5.50;;;4.53;;
19758;SDS011;10038;42.662;23.278;2023-04-24T12:53:26;5.80;;;4.47;;
19758;SDS011;10038;42.662;23.278;2023-04-24T12:55:55;6.33;;;5.20;;
19758;SDS011;10038;42.662;23.278;2023-04-24T12:58:23;4.87;;;4.23;;
19758;SDS011;10038;42.662;23.278;2023-04-24T13:00:50;5.07;;;4.57;;
19758;SDS011;10038;42.662;23.278;2023-04-24T13:03:17;5.03;;;4.53;;
19758;SDS011;10038;42.662;23.278;2023-04-24T13:05:45;4.37;;;4.07;;
19758;SDS011;10038;42.662;23.278;2023-04-24T13:08:11;4.60;;;4.20;;
19758;SDS011;10038;42.662;23.278;2023-04-24T13:10:39;8.77;;;4.43;;
19758;SDS011;10038;42.662;23.278;2023-04-24T13:13:06;7.90;;;4.57;;
19758;SDS011;10038;42.662;23.278;2023-04-24T13:15:34;6.63;;;4.23;;
19758;SDS011;10038;42.662;23.278;2023-04-24T13:18:01;6.70;;;4.50;;
19758;SDS011;10038;42.662;23.278;2023-04-24T13:20:28;4.67;;;4.20;;
19758;SDS011;10038;42.662;23.278;2023-04-24T13:23:06;4.83;;;4.43;;
19758;SDS011;10038;42.662;23.278;2023-04-24T13:25:53;4.23;;;3.87;;
19758;SDS011;10038;42.662;23.278;2023-04-24T13:28:22;4.90;;;4.50;;
19758;SDS011;10038;42.662;23.278;2023-04-24T13:30:51;5.60;;;3.97;;
19758;SDS011;10038;42.662;23.278;2023-04-24T13:33:18;4.40;;;4.00;;
19758;SDS011;10038;42.662;23.278;2023-04-24T13:35:44;3.90;;;3.60;;
19758;SDS011;10038;42.662;23.278;2023-04-24T13:38:11;4.17;;;3.77;;
19758;SDS011;10038;42.662;23.278;2023-04-24T13:40:38;4.70;;;4.30;;
19758;SDS011;10038;42.662;23.278;2023-04-24T13:43:05;3.70;;;3.40;;
19758;SDS011;10038;42.662;23.278;2023-04-24T13:45:32;7.23;;;4.10;;
19758;SDS011;10038;42.662;23.278;2023-04-24T13:48:00;5.87;;;3.87;;
19758;SDS011;10038;42.662;23.278;2023-04-24T13:50:28;9.10;;;4.23;;
19758;SDS011;10038;42.662;23.278;2023-04-24T13:52:55;4.47;;;3.87;;
19758;SDS011;10038;42.662;23.278;2023-04-24T13:55:22;8.17;;;4.17;;
19758;SDS011;10038;42.662;23.278;2023-04-24T13:57:49;5.80;;;4.00;;
19758;SDS011;10038;42.662;23.278;2023-04-24T14:00:17;4.67;;;4.20;;
19758;SDS011;10038;42.662;23.278;2023-04-24T14:02:44;4.77;;;3.57;;
19758;SDS011;10038;42.662;23.278;2023-04-24T14:05:13;7.40;;;4.20;;
19758;SDS011;10038;42.662;23.278;2023-04-24T14:07:41;4.70;;;4.20;;
19758;SDS011;10038;42.662;23.278;2023-04-24T14:10:08;4.47;;;4.10;;
19758;SDS011;10038;42.662;23.278;2023-04-24T14:12:35;5.70;;;3.53;;
19758;SDS011;10038;42.662;23.278;2023-04-24T14:15:03;3.90;;;3.60;;
19758;SDS011;10038;42.662;23.278;2023-04-24T14:17:30;4.03;;;3.73;;
19758;SDS011;10038;42.662;23.278;2023-04-24T14:19:57;4.00;;;3.70;;
19758;SDS011;10038;42.662;23.278;2023-04-24T14:22:26;3.90;;;3.50;;
19758;SDS011;10038;42.662;23.278;2023-04-24T14:24:54;4.07;;;3.77;;
19758;SDS011;10038;42.662;23.278;2023-04-24T14:27:20;6.60;;;3.50;;
19758;SDS011;10038;42.662;23.278;2023-04-24T14:29:47;4.30;;;3.80;;
19758;SDS011;10038;42.662;23.278;2023-04-24T14:32:14;5.20;;;3.87;;
19758;SDS011;10038;42.662;23.278;2023-04-24T14:34:41;7.30;;;3.80;;